sensor_id;sensor_type;location;lat;lon;timestamp;P1;durP1;ratioP1;P2;durP2;ratioP2
75516;SDS011;64097;52.548;13.406;2022-12-24T06:04:08;8.30;;;7.20;;
75516;SDS011;64097;52.548;13.406;2022-12-24T06:06:33;8.40;;;7.50;;
75516;SDS011;64097;52.548;13.406;2022-12-24T06:08:59;9.73;;;8.00;;
75516;SDS011;64097;52.548;13.406;2022-12-24T06:11:26;8.90;;;7.65;;
75516;SDS011;64097;52.548;13.406;2022-12-24T06:13:52;9.20;;;7.85;;
75516;SDS011;64097;52.548;13.406;2022-12-24T06:16:18;10.02;;;8.55;;
75516;SDS011;64097;52.548;13.406;2022-12-24T06:18:44;11.52;;;8.48;;
75516;SDS011;64097;52.548;13.406;2022-12-24T06:21:11;9.60;;;8.60;;
75516;SDS011;64097;52.548;13.406;2022-12-24T06:23:37;10.70;;;9.07;;
75516;SDS011;64097;52.548;13.406;2022-12-24T06:26:05;9.40;;;7.88;;
75516;SDS011;64097;52.548;13.406;2022-12-24T06:28:33;10.25;;;8.57;;
75516;SDS011;64097;52.548;13.406;2022-12-24T06:31:01;10.65;;;8.75;;
75516;SDS011;64097;52.548;13.406;2022-12-24T06:33:28;10.20;;;8.82;;
75516;SDS011;64097;52.548;13.406;2022-12-24T06:35:54;9.95;;;8.43;;
75516;SDS011;64097;52.548;13.406;2022-12-24T06:38:20;11.25;;;8.70;;
75516;SDS011;64097;52.548;13.406;2022-12-24T06:40:45;8.77;;;7.72;;
75516;SDS011;64097;52.548;13.406;2022-12-24T06:43:12;10.38;;;8.48;;
75516;SDS011;64097;52.548;13.406;2022-12-24T06:45:39;10.73;;;9.40;;
75516;SDS011;64097;52.548;13.406;2022-12-24T06:48:08;10.85;;;8.90;;
75516;SDS011;64097;52.548;13.406;2022-12-24T06:50:34;12.43;;;10.10;;
75516;SDS011;64097;52.548;13.406;2022-12-24T06:53:00;11.95;;;9.60;;
75516;SDS011;64097;52.548;13.406;2022-12-24T06:55:25;9.85;;;8.68;;
75516;SDS011;64097;52.548;13.406;2022-12-24T06:57:52;10.32;;;8.95;;
75516;SDS011;64097;52.548;13.406;2022-12-24T07:00:17;10.32;;;8.98;;
75516;SDS011;64097;52.548;13.406;2022-12-24T07:02:45;11.98;;;9.10;;
75516;SDS011;64097;52.548;13.406;2022-12-24T07:05:11;9.23;;;8.23;;
75516;SDS011;64097;52.548;13.406;2022-12-24T07:07:38;12.68;;;10.20;;
75516;SDS011;64097;52.548;13.406;2022-12-24T07:10:05;10.85;;;8.32;;
75516;SDS011;64097;52.548;13.406;2022-12-24T07:12:32;11.00;;;9.23;;
75516;SDS011;64097;52.548;13.406;2022-12-24T07:14:58;11.18;;;9.07;;
75516;SDS011;64097;52.548;13.406;2022-12-24T07:17:24;11.88;;;8.75;;
75516;SDS011;64097;52.548;13.406;2022-12-24T07:19:50;9.30;;;7.95;;
75516;SDS011;64097;52.548;13.406;2022-12-24T07:22:15;10.63;;;8.02;;
75516;SDS011;64097;52.548;13.406;2022-12-24T07:24:41;9.20;;;7.90;;
75516;SDS011;64097;52.548;13.406;2022-12-24T07:27:07;8.70;;;7.78;;
75516;SDS011;64097;52.548;13.406;2022-12-24T07:29:33;10.32;;;8.55;;
75516;SDS011;64097;52.548;13.406;2022-12-24T07:31:59;9.32;;;8.05;;
75516;SDS011;64097;52.548;13.406;2022-12-24T07:34:25;8.70;;;7.30;;
75516;SDS011;64097;52.548;13.406;2022-12-24T07:36:50;8.10;;;7.00;;
75516;SDS011;64097;52.548;13.406;2022-12-24T07:39:16;8.65;;;7.45;;
75516;SDS011;64097;52.548;13.406;2022-12-24T07:41:42;8.98;;;8.02;;
75516;SDS011;64097;52.548;13.406;2022-12-24T07:44:11;8.68;;;7.05;;
75516;SDS011;64097;52.548;13.406;2022-12-24T07:46:37;8.35;;;7.25;;
75516;SDS011;64097;52.548;13.406;2022-12-24T07:49:03;10.60;;;8.00;;
75516;SDS011;64097;52.548;13.406;2022-12-24T07:51:29;8.40;;;6.93;;
75516;SDS011;64097;52.548;13.406;2022-12-24T07:53:54;8.27;;;7.28;;
75516;SDS011;64097;52.548;13.406;2022-12-24T07:56:20;8.60;;;7.30;;
75516;SDS011;64097;52.548;13.406;2022-12-24T07:58:46;10.32;;;7.68;;
75516;SDS011;64097;52.548;13.406;2022-12-24T08:01:12;10.68;;;8.18;;
75516;SDS011;64097;52.548;13.406;2022-12-24T08:03:37;10.35;;;7.50;;
75516;SDS011;64097;52.548;13.406;2022-12-24T08:06:03;9.30;;;7.97;;
75516;SDS011;64097;52.548;13.406;2022-12-24T08:08:29;9.65;;;7.30;;
75516;SDS011;64097;52.548;13.406;2022-12-24T08:10:59;8.45;;;7.10;;
75516;SDS011;64097;52.548;13.406;2022-12-24T08:13:29;9.75;;;7.47;;
75516;SDS011;64097;52.548;13.406;2022-12-24T08:15:55;9.68;;;8.10;;
75516;SDS011;64097;52.548;13.406;2022-12-24T08:18:21;9.45;;;7.72;;
75516;SDS011;64097;52.548;13.406;2022-12-24T08:20:47;9.63;;;7.78;;
75516;SDS011;64097;52.548;13.406;2022-12-24T08:23:13;10.52;;;8.65;;
75516;SDS011;64097;52.548;13.406;2022-12-24T08:25:43;11.07;;;8.27;;
75516;SDS011;64097;52.548;13.406;2022-12-24T08:28:10;12.65;;;8.90;;
75516;SDS011;64097;52.548;13.406;2022-12-24T08:30:36;10.98;;;8.80;;
75516;SDS011;64097;52.548;13.406;2022-12-24T08:33:02;10.65;;;9.10;;
75516;SDS011;64097;52.548;13.406;2022-12-24T08:35:28;10.35;;;7.60;;
75516;SDS011;64097;52.548;13.406;2022-12-24T08:37:53;11.77;;;8.88;;
75516;SDS011;64097;52.548;13.406;2022-12-24T08:40:19;10.90;;;8.48;;
75516;SDS011;64097;52.548;13.406;2022-12-24T08:42:45;12.00;;;9.68;;
75516;SDS011;64097;52.548;13.406;2022-12-24T08:45:11;10.70;;;8.82;;
75516;SDS011;64097;52.548;13.406;2022-12-24T08:47:37;10.57;;;8.70;;
75516;SDS011;64097;52.548;13.406;2022-12-24T08:50:05;9.00;;;7.43;;
75516;SDS011;64097;52.548;13.406;2022-12-24T08:52:31;9.27;;;7.10;;
75516;SDS011;64097;52.548;13.406;2022-12-24T08:54:57;9.68;;;8.02;;
75516;SDS011;64097;52.548;13.406;2022-12-24T08:57:23;10.25;;;7.90;;
75516;SDS011;64097;52.548;13.406;2022-12-24T08:59:49;9.88;;;7.88;;
75516;SDS011;64097;52.548;13.406;2022-12-24T09:02:14;9.10;;;8.05;;
75516;SDS011;64097;52.548;13.406;2022-12-24T09:04:40;11.43;;;8.20;;
75516;SDS011;64097;52.548;13.406;2022-12-24T09:07:06;9.32;;;7.35;;
75516;SDS011;64097;52.548;13.406;2022-12-24T09:09:33;9.07;;;7.05;;
75516;SDS011;64097;52.548;13.406;2022-12-24T09:11:59;8.25;;;7.03;;
75516;SDS011;64097;52.548;13.406;2022-12-24T09:14:25;9.82;;;7.50;;
75516;SDS011;64097;52.548;13.406;2022-12-24T09:16:50;8.90;;;6.72;;
75516;SDS011;64097;52.548;13.406;2022-12-24T09:19:17;8.73;;;7.72;;
75516;SDS011;64097;52.548;13.406;2022-12-24T09:21:43;7.40;;;6.50;;
75516;SDS011;64097;52.548;13.406;2022-12-24T09:24:08;7.15;;;5.90;;
75516;SDS011;64097;52.548;13.406;2022-12-24T09:26:34;8.05;;;6.30;;
75516;SDS011;64097;52.548;13.406;2022-12-24T09:29:00;9.15;;;7.15;;
75516;SDS011;64097;52.548;13.406;2022-12-24T09:31:27;7.90;;;6.65;;
75516;SDS011;64097;52.548;13.406;2022-12-24T09:33:53;9.68;;;7.53;;
75516;SDS011;64097;52.548;13.406;2022-12-24T09:36:19;8.40;;;6.90;;
75516;SDS011;64097;52.548;13.406;2022-12-24T09:38:45;6.65;;;5.60;;
75516;SDS011;64097;52.548;13.406;2022-12-24T09:41:13;7.45;;;6.10;;
75516;SDS011;64097;52.548;13.406;2022-12-24T09:43:55;7.13;;;6.00;;
75516;SDS011;64097;52.548;13.406;2022-12-24T09:46:42;6.35;;;5.53;;
75516;SDS011;64097;52.548;13.406;2022-12-24T09:49:16;6.55;;;5.45;;
75516;SDS011;64097;52.548;13.406;2022-12-24T09:51:47;6.68;;;5.63;;
75516;SDS011;64097;52.548;13.406;2022-12-24T09:56:46;7.32;;;6.15;;
75516;SDS011;64097;52.548;13.406;2022-12-24T09:59:15;8.55;;;6.60;;
75516;SDS011;64097;52.548;13.406;2022-12-24T10:01:43;8.52;;;7.00;;
75516;SDS011;64097;52.548;13.406;2022-12-24T10:04:13;9.38;;;6.95;;
75516;SDS011;64097;52.548;13.406;2022-12-24T10:09:36;9.07;;;7.70;;
75516;SDS011;64097;52.548;13.406;2022-12-24T10:12:44;11.32;;;9.05;;
75516;SDS011;64097;52.548;13.406;2022-12-24T10:15:38;8.35;;;6.93;;
75516;SDS011;64097;52.548;13.406;2022-12-24T10:18:15;9.10;;;7.53;;
75516;SDS011;64097;52.548;13.406;2022-12-24T10:21:12;9.70;;;7.88;;
75516;SDS011;64097;52.548;13.406;2022-12-24T10:26:21;10.48;;;8.77;;
75516;SDS011;64097;52.548;13.406;2022-12-24T10:28:52;12.38;;;10.05;;
75516;SDS011;64097;52.548;13.406;2022-12-24T10:31:26;11.07;;;9.17;;
75516;SDS011;64097;52.548;13.406;2022-12-24T10:33:57;11.63;;;9.50;;
75516;SDS011;64097;52.548;13.406;2022-12-24T10:36:34;12.85;;;10.40;;
75516;SDS011;64097;52.548;13.406;2022-12-24T10:39:00;11.43;;;9.25;;
75516;SDS011;64097;52.548;13.406;2022-12-24T10:41:26;8.90;;;7.82;;
75516;SDS011;64097;52.548;13.406;2022-12-24T10:43:54;10.18;;;8.60;;
75516;SDS011;64097;52.548;13.406;2022-12-24T10:48:50;11.07;;;9.32;;
75516;SDS011;64097;52.548;13.406;2022-12-24T10:51:45;14.48;;;11.55;;
75516;SDS011;64097;52.548;13.406;2022-12-24T10:54:18;13.40;;;10.75;;
75516;SDS011;64097;52.548;13.406;2022-12-24T10:56:50;12.27;;;10.65;;
75516;SDS011;64097;52.548;13.406;2022-12-24T10:59:24;9.85;;;8.48;;
75516;SDS011;64097;52.548;13.406;2022-12-24T11:01:52;9.80;;;7.82;;
75516;SDS011;64097;52.548;13.406;2022-12-24T11:04:20;9.50;;;8.43;;
75516;SDS011;64097;52.548;13.406;2022-12-24T11:06:52;9.75;;;8.60;;
75516;SDS011;64097;52.548;13.406;2022-12-24T11:09:30;10.25;;;9.15;;
75516;SDS011;64097;52.548;13.406;2022-12-24T11:11:56;10.20;;;9.10;;
75516;SDS011;64097;52.548;13.406;2022-12-24T11:14:23;10.60;;;9.32;;
75516;SDS011;64097;52.548;13.406;2022-12-24T11:16:54;10.85;;;9.40;;
75516;SDS011;64097;52.548;13.406;2022-12-24T11:19:30;10.90;;;9.30;;
75516;SDS011;64097;52.548;13.406;2022-12-24T11:22:03;11.38;;;9.82;;
75516;SDS011;64097;52.548;13.406;2022-12-24T11:24:42;11.25;;;10.00;;
75516;SDS011;64097;52.548;13.406;2022-12-24T11:27:22;11.10;;;9.32;;
75516;SDS011;64097;52.548;13.406;2022-12-24T11:35:19;8.27;;;7.45;;
75516;SDS011;64097;52.548;13.406;2022-12-24T11:38:09;9.60;;;8.43;;
75516;SDS011;64097;52.548;13.406;2022-12-24T11:40:35;8.85;;;7.95;;
75516;SDS011;64097;52.548;13.406;2022-12-24T11:43:18;9.50;;;8.48;;
75516;SDS011;64097;52.548;13.406;2022-12-24T11:45:49;9.10;;;8.20;;
75516;SDS011;64097;52.548;13.406;2022-12-24T11:48:27;9.02;;;8.13;;
75516;SDS011;64097;52.548;13.406;2022-12-24T11:50:57;7.88;;;7.07;;
75516;SDS011;64097;52.548;13.406;2022-12-24T11:53:26;9.85;;;8.85;;
75516;SDS011;64097;52.548;13.406;2022-12-24T11:55:58;9.07;;;8.18;;
75516;SDS011;64097;52.548;13.406;2022-12-24T12:03:48;7.97;;;7.18;;
75516;SDS011;64097;52.548;13.406;2022-12-24T12:06:31;9.50;;;8.45;;
75516;SDS011;64097;52.548;13.406;2022-12-24T12:09:05;8.60;;;7.70;;
75516;SDS011;64097;52.548;13.406;2022-12-24T12:11:37;9.40;;;8.40;;
75516;SDS011;64097;52.548;13.406;2022-12-24T12:14:07;7.88;;;7.07;;
75516;SDS011;64097;52.548;13.406;2022-12-24T12:16:46;9.07;;;7.97;;
75516;SDS011;64097;52.548;13.406;2022-12-24T12:19:31;7.53;;;6.78;;
75516;SDS011;64097;52.548;13.406;2022-12-24T12:22:10;8.18;;;6.90;;
75516;SDS011;64097;52.548;13.406;2022-12-24T12:24:58;8.40;;;7.50;;
75516;SDS011;64097;52.548;13.406;2022-12-24T12:27:35;8.25;;;7.35;;
75516;SDS011;64097;52.548;13.406;2022-12-24T12:30:14;9.68;;;8.07;;
75516;SDS011;64097;52.548;13.406;2022-12-24T12:32:59;8.77;;;7.63;;
75516;SDS011;64097;52.548;13.406;2022-12-24T12:35:30;8.75;;;7.30;;
75516;SDS011;64097;52.548;13.406;2022-12-24T12:38:08;7.68;;;6.72;;
75516;SDS011;64097;52.548;13.406;2022-12-24T12:43:58;8.48;;;7.28;;
75516;SDS011;64097;52.548;13.406;2022-12-24T12:46:01;7.63;;;6.82;;
75516;SDS011;64097;52.548;13.406;2022-12-24T12:48:51;6.85;;;6.15;;
75516;SDS011;64097;52.548;13.406;2022-12-24T12:51:56;7.22;;;6.53;;
75516;SDS011;64097;52.548;13.406;2022-12-24T12:54:44;7.18;;;6.13;;
75516;SDS011;64097;52.548;13.406;2022-12-24T12:57:15;6.93;;;6.13;;
75516;SDS011;64097;52.548;13.406;2022-12-24T12:59:58;7.28;;;6.30;;
75516;SDS011;64097;52.548;13.406;2022-12-24T13:05:35;8.65;;;7.47;;
75516;SDS011;64097;52.548;13.406;2022-12-24T13:10:59;8.43;;;6.68;;
75516;SDS011;64097;52.548;13.406;2022-12-24T13:13:33;7.97;;;6.43;;
75516;SDS011;64097;52.548;13.406;2022-12-24T13:19:12;7.65;;;6.53;;
75516;SDS011;64097;52.548;13.406;2022-12-24T13:21:52;7.53;;;6.53;;
75516;SDS011;64097;52.548;13.406;2022-12-24T13:24:21;6.13;;;5.43;;
75516;SDS011;64097;52.548;13.406;2022-12-24T13:32:35;6.43;;;5.22;;
75516;SDS011;64097;52.548;13.406;2022-12-24T13:35:25;6.03;;;5.15;;
75516;SDS011;64097;52.548;13.406;2022-12-24T13:37:49;6.18;;;4.88;;
75516;SDS011;64097;52.548;13.406;2022-12-24T13:40:21;5.82;;;4.97;;
75516;SDS011;64097;52.548;13.406;2022-12-24T13:42:50;7.40;;;5.55;;
75516;SDS011;64097;52.548;13.406;2022-12-24T13:48:00;7.00;;;5.30;;
75516;SDS011;64097;52.548;13.406;2022-12-24T13:50:39;7.82;;;5.72;;
75516;SDS011;64097;52.548;13.406;2022-12-24T13:55:51;8.00;;;5.00;;
75516;SDS011;64097;52.548;13.406;2022-12-24T13:58:18;8.48;;;5.57;;
